Nashville, Tennessee
Traffic Map
Current Weather Conditions
Nashville, Tennessee
Overcast
Overcast

Feels Like: -1°
Wind Chill: -1° Ceiling: 1600
Heat Index: Visibility: 10mi
Dew Point: -1° Wind: 9mph
Humidity: 79% Direction: 320° (NW)
Pressure: 30.23in Gusts: 18mph
Raw Report DataKBNA 271053Z 32008G16KT 10SM BKN016 OVC025 03/M01 A3023 RMK AO2 SLP237 T00281006
Traffic Incident Summary
Active as of:
Severity:
Category:
InformationThere was an issue retrieving the traffic information for this location. Please try a different location or try again shortly.
Advertisements
Track Severe Weather on mobile